Latest Weather Observations for Avalon

IDV60901

Issued at 1:51 pm EDT Monday 23 October 2017 (issued every 10 minutes, with the page automatically refreshed every 10 minutes)

About weather observations | Map of Melbourne area stations | Latest observations for Melbourne area | Other Formats
Station Details ID: 087113 Name: AVALON AIRPORT Lat: -38.03 Lon: 144.48 Height: 10.6 m
Data from the previous 72 hours. | See also: Recent months at Avalon
Date/Time
EDT
Temp
°C
App
Temp
°C
Dew
Point
°C
Rel
Hum
%
Delta-T
°C
Wind Press
QNH
hPa
Press
MSL
hPa
Rain since
9am
mm
Dir  Spd
km/h
Gust
km/h
Spd
kts
Gust
kts
23/01:30pm 18.0 14.8 10.1 60 4.2 SW 17 30 9 16 1017.9 1017.9 0.0
23/01:00pm 18.1 15.4 10.5 61 4.1 WSW 15 24 8 13 1018.1 1018.1 0.0
23/12:30pm 18.2 15.3 11.0 63 3.9 SW 17 26 9 14 1018.4 1018.4 0.0
23/12:00pm 16.8 14.0 10.0 64 3.6 WSW 15 19 8 10 1018.8 1018.8 0.0
23/11:30am 16.7 14.7 10.3 66 3.4 WSW 11 19 6 10 1019.0 1019.0 0.0
23/11:00am 17.4 16.0 11.0 66 3.4 W 9 17 5 9 1019.1 1019.1 0.0
23/10:30am 16.0 14.3 9.7 66 3.3 NW 9 13 5 7 1018.9 1018.9 0.0
23/10:00am 15.0 12.5 9.8 71 2.7 WNW 13 20 7 11 1019.0 1019.0 0.0
23/09:30am 14.7 12.7 10.3 75 2.3 WNW 11 15 6 8 1019.1 1019.1 0.0
23/09:26am 14.9 13.2 11.3 79 1.9 NW 11 17 6 9 1019.2 1019.2 0.0
23/09:00am 14.2 11.7 11.2 82 1.6 WNW 15 20 8 11 1019.3 1019.3 0.6
23/08:37am 13.2 10.7 11.1 87 1.1 WNW 15 20 8 11 1019.2 1019.2 0.6
23/08:30am 13.3 10.6 11.7 90 0.9 WNW 17 20 9 11 1019.2 1019.2 0.6
23/08:00am 12.1 10.6 11.9 99 0.1 NW 11 17 6 9 1019.2 1019.2 0.6
23/07:30am 9.8 8.4 9.7 99 0.1 NNW 7 9 4 5 1019.0 1019.0 0.6
23/07:00am 9.8 8.1 9.7 99 0.0 NW 9 13 5 7 1019.0 1019.0 0.6
23/06:30am 10.7 8.8 10.4 98 0.2 WNW 11 15 6 8 1018.7 1018.7 0.6
23/06:00am 10.8 8.5 10.3 97 0.3 WNW 13 15 7 8 1018.9 1018.9 0.6
23/05:30am 11.3 8.6 10.2 93 0.6 W 15 20 8 11 1018.7 1018.7 0.6
23/05:00am 11.5 9.1 10.2 92 0.7 WNW 13 19 7 10 1018.6 1018.6 0.6
23/04:30am 11.5 9.1 9.9 90 0.8 WNW 13 15 7 8 1018.5 1018.5 0.6
23/04:00am 11.4 9.3 9.7 89 0.9 WNW 11 13 6 7 1018.5 1018.5 0.6
23/03:30am 11.1 9.2 9.2 88 0.9 WNW 9 11 5 6 1018.4 1018.4 0.6
23/03:00am 11.7 9.6 9.8 88 1.0 WSW 11 15 6 8 1018.6 1018.6 0.6
23/02:30am 11.6 9.6 10.2 91 0.7 WSW 11 13 6 7 1018.8 1018.8 0.6
23/02:00am 11.6 9.3 10.3 92 0.7 WSW 13 17 7 9 1018.9 1018.9 0.6
23/01:30am 11.6 9.3 10.3 92 0.7 W 13 19 7 10 1019.4 1019.4 0.6
23/01:00am 11.7 10.2 10.4 92 0.7 WSW 9 13 5 7 1019.5 1019.5 0.6
23/12:30am 12.1 10.1 10.3 89 0.9 W 11 15 6 8 1019.5 1019.5 0.6
23/12:00am 12.2 9.9 10.6 90 0.8 W 13 17 7 9 1019.6 1019.6 0.6
 
Date/Time
EDT
Temp
°C
App
Temp
°C
Dew
Point
°C
Rel
Hum
%
Delta-T
°C
Wind Press
QNH
hPa
Press
MSL
hPa
Rain since
9am
mm
Dir  Spd
km/h
Gust
km/h
Spd
kts
Gust
kts
22/11:30pm 12.4 10.5 10.5 88 1.0 W 11 15 6 8 1019.7 1019.7 0.6
22/11:00pm 12.7 11.2 10.6 87 1.1 W 9 13 5 7 1019.7 1019.7 0.6
22/10:30pm 13.1 11.5 11.5 90 0.8 SW 11 13 6 7 1019.8 1019.8 0.6
22/10:00pm 13.1 11.0 11.3 89 0.9 SW 13 15 7 8 1019.7 1019.7 0.6
22/09:30pm 13.1 10.3 11.2 88 1.0 SSW 17 20 9 11 1019.5 1019.5 0.6
22/09:00pm 13.3 10.5 11.2 87 1.1 SSW 17 20 9 11 1019.2 1019.2 0.6
22/08:30pm 13.2 9.6 10.7 85 1.3 SSW 20 26 11 14 1018.8 1018.8 0.6
22/08:00pm 12.9 9.9 10.6 86 1.2 SSW 17 20 9 11 1018.4 1018.4 0.6
22/07:30pm 13.3 9.3 10.5 83 1.5 SSW 22 30 12 16 1018.3 1018.3 0.6
22/07:00pm 14.1 8.9 10.3 78 2.0 SSW 28 35 15 19 1018.1 1018.1 0.6
22/06:30pm 14.7 9.2 10.5 76 2.2 S 30 35 16 19 1017.8 1017.8 0.6
22/06:00pm 14.9 9.3 10.3 74 2.4 S 30 39 16 21 1017.6 1017.6 0.6
22/05:30pm 15.4 10.4 11.0 75 2.3 S 28 39 15 21 1017.4 1017.4 0.6
22/05:00pm 15.6 11.0 11.0 74 2.4 S 26 33 14 18 1017.2 1017.2 0.6
22/04:30pm 16.9 12.8 11.4 70 3.0 SSW 24 32 13 17 1017.1 1017.1 0.6
22/04:00pm 15.5 10.5 11.1 75 2.3 S 28 33 15 18 1017.2 1017.2 0.6
22/03:30pm 16.0 11.4 13.5 85 1.4 S 30 37 16 20 1017.3 1017.3 0.6
22/03:00pm 15.1 11.6 13.3 89 1.0 S 24 32 13 17 1017.6 1017.6 0.6
22/02:30pm 14.3 13.5 14.1 99 0.1 SSW 11 19 6 10 1017.9 1017.9 0.6
22/02:27pm 14.6 13.9 14.4 99 0.1 SW 11 19 6 10 1018.0 1018.0 0.6
22/02:17pm 14.1 13.6 13.9 99 0.1 WSW 9 13 5 7 1018.1 1018.1 0.6
22/02:07pm 14.0 13.1 13.8 99 0.1 WSW 11 13 6 7 1018.0 1018.0 0.4
22/02:00pm 13.9 13.0 13.7 99 0.1 SW 11 17 6 9 1018.0 1018.0 0.4
22/01:50pm 14.0 12.4 13.8 99 0.1 SSW 15 20 8 11 1018.1 1018.1 0.4
22/01:30pm 13.9 13.2 13.3 96 0.3 S 9 13 5 7 1018.2 1018.2 0.4
22/01:11pm 14.2 13.4 14.0 99 0.1 SSW 11 15 6 8 1018.4 1018.4 0.4
22/01:00pm 14.4 13.7 14.2 99 0.1 SW 11 15 6 8 1018.4 1018.4 0.4
22/12:41pm 13.7 12.1 12.9 95 0.4 SW 13 19 7 10 1018.5 1018.5 0.4
22/12:36pm 13.7 11.7 12.8 94 0.5 SW 15 19 8 10 1018.6 1018.6 0.2
22/12:30pm 13.6 12.1 13.0 96 0.3 SSW 13 17 7 9 1018.6 1018.6 0.2
22/12:20pm 13.5 11.4 12.4 93 0.6 SSW 15 20 8 11 1018.7 1018.7 0.2
22/12:16pm 13.5 11.2 11.9 90 0.9 SW 15 20 8 11 1018.8 1018.8 0.0
22/12:01pm 13.7 10.3 10.7 82 1.6 WSW 19 30 10 16 1018.7 1018.7 0.0
22/12:00pm 13.9 10.5 10.7 81 1.7 WSW 19 30 10 16 1018.7 1018.7 0.0
22/11:30am 15.1 10.9 9.7 70 2.8 W 22 32 12 17 1018.6 1018.6 0.0
22/11:00am 14.4 10.4 9.2 71 2.6 WSW 20 30 11 16 1018.7 1018.7 0.0
22/10:30am 14.5 10.8 9.5 72 2.6 W 19 28 10 15 1018.8 1018.8 0.0
22/10:00am 15.3 11.8 10.1 71 2.7 W 19 28 10 15 1018.6 1018.6 0.0
22/09:30am 14.3 10.2 10.1 76 2.2 W 22 30 12 16 1018.7 1018.7 0.0
22/09:00am 13.6 9.6 10.6 82 1.6 W 22 30 12 16 1018.7 1018.7 0.0
22/08:30am 12.8 8.0 10.2 84 1.3 W 26 33 14 18 1018.6 1018.6 0.0
22/08:00am 11.7 8.0 10.3 91 0.7 W 20 28 11 15 1018.7 1018.7 0.0
22/07:30am 11.3 7.7 10.7 96 0.3 W 20 28 11 15 1018.3 1018.3 0.0
22/07:00am 10.7 7.1 10.5 99 0.1 W 20 26 11 14 1018.2 1018.2 0.0
22/06:30am 10.3 6.8 10.1 99 0.1 WNW 19 24 10 13 1017.9 1017.9 0.0
22/06:00am 10.3 7.1 10.1 99 0.1 W 17 20 9 11 1018.1 1018.1 0.0
22/05:30am 10.4 6.7 10.2 99 0.1 W 20 26 11 14 1018.0 1018.0 0.0
22/05:11am 10.4 7.7 10.2 99 0.1 W 15 19 8 10 1018.0 1018.0 0.0
22/05:00am 10.4 7.7 10.2 99 0.1 W 15 20 8 11 1018.0 1018.0 0.0
22/04:35am 10.5 7.4 10.3 99 0.1 WSW 17 20 9 11 1018.3 1018.3 0.0
22/04:33am 10.5 7.4 10.3 99 0.1 WSW 17 20 9 11 1018.4 1018.4 0.0
22/04:30am 10.5 7.8 10.3 99 0.1 W 15 19 8 10 1018.4 1018.4 0.0
22/04:00am 10.5 8.5 10.3 99 0.1 W 11 17 6 9 1018.6 1018.6 0.0
22/03:56am 10.5 8.5 10.3 99 0.1 W 11 17 6 9 1018.5 1018.5 0.0
22/03:46am 10.5 7.8 10.3 99 0.1 WSW 15 20 8 11 1018.6 1018.6 0.0
22/03:40am 10.6 7.5 10.3 98 0.2 W 17 24 9 13 1018.8 1018.8 0.0
22/03:30am 10.6 7.8 10.0 96 0.3 W 15 20 8 11 1018.9 1018.9 0.0
22/03:00am 10.2 6.4 9.0 92 0.6 WNW 19 24 10 13 1018.6 1018.6 0.0
22/02:30am 10.4 7.0 9.2 92 0.6 W 17 20 9 11 1019.4 1019.4 0.0
22/02:00am 10.8 6.7 8.7 87 1.0 W 20 26 11 14 1019.8 1019.8 0.0
22/01:30am 10.9 7.4 8.8 87 1.0 W 17 20 9 11 1020.2 1020.2 0.0
22/01:00am 10.9 7.0 8.5 85 1.2 WNW 19 22 10 12 1020.4 1020.4 0.0
22/12:30am 11.1 8.3 8.5 84 1.3 W 13 20 7 11 1020.6 1020.6 0.0
22/12:00am 10.5 6.8 9.3 92 0.6 W 19 24 10 13 1020.9 1020.9 0.0
 
Date/Time
EDT
Temp
°C
App
Temp
°C
Dew
Point
°C
Rel
Hum
%
Delta-T
°C
Wind Press
QNH
hPa
Press
MSL
hPa
Rain since
9am
mm
Dir  Spd
km/h
Gust
km/h
Spd
kts
Gust
kts
21/11:30pm 9.8 6.7 9.0 95 0.4 W 15 17 8 9 1021.1 1021.1 0.0
21/11:00pm 10.0 5.8 8.4 90 0.8 W 20 24 11 13 1021.3 1021.3 0.0
21/10:30pm 10.4 6.4 8.3 87 1.0 W 19 22 10 12 1021.5 1021.5 0.0
21/10:00pm 11.0 7.4 8.2 83 1.4 W 17 20 9 11 1021.7 1021.7 0.0
21/09:30pm 11.4 8.4 7.9 79 1.7 W 13 19 7 10 1021.9 1021.9 0.0
21/09:00pm 12.4 8.2 7.5 72 2.4 WSW 19 28 10 15 1022.0 1022.0 0.0
21/08:30pm 12.9 9.5 7.8 71 2.5 W 15 24 8 13 1021.9 1021.9 0.0
21/08:00pm 12.7 10.6 9.9 83 1.4 WSW 11 15 6 8 1021.9 1021.9 0.0
21/07:30pm 12.7 10.3 10.1 84 1.3 SSW 13 17 7 9 1021.9 1021.9 0.0
21/07:00pm 12.6 9.4 9.8 83 1.4 SSW 17 22 9 12 1021.8 1021.8 0.0
21/06:30pm 13.5 10.9 9.4 76 2.1 S 13 19 7 10 1021.7 1021.7 0.0
21/06:00pm 13.4 9.7 9.3 76 2.1 S 19 22 10 12 1021.9 1021.9 0.0
21/05:30pm 13.4 9.5 9.5 77 2.0 S 20 28 11 15 1022.1 1022.1 0.0
21/05:00pm 13.7 10.1 8.3 70 2.7 SSW 17 20 9 11 1022.1 1022.1 0.0
21/04:30pm 14.3 11.4 8.3 67 3.0 S 13 19 7 10 1022.2 1022.2 0.0
21/04:00pm 14.9 11.9 7.9 63 3.5 SSE 13 20 7 11 1022.5 1022.5 0.0
21/03:30pm 14.6 12.5 8.3 66 3.2 S 9 15 5 8 1022.7 1022.7 0.0
21/03:00pm 14.0 12.2 7.8 66 3.1 SSW 7 17 4 9 1023.2 1023.2 0.0
21/02:30pm 13.9 11.0 8.3 69 2.8 S 13 17 7 9 1023.6 1023.6 0.0
21/02:00pm 14.1 11.0 7.4 64 3.3 S 13 20 7 11 1023.9 1023.9 0.0
21/01:30pm 14.2 10.7 7.3 63 3.4 SW 15 22 8 12 1024.3 1024.3 0.0
21/01:00pm 14.0 9.7 7.1 63 3.3 WSW 19 26 10 14 1024.6 1024.6 0.0
21/12:30pm 14.2 10.2 6.6 60 3.7 SW 17 24 9 13 1024.9 1024.9 0.0
21/12:00pm 13.5 8.9 6.4 62 3.4 W 20 30 11 16 1025.4 1025.4 0.0
21/11:30am 13.8 9.3 5.9 59 3.7 WSW 19 30 10 16 1025.6 1025.6 0.0
21/11:00am 13.5 8.3 5.4 58 3.8 WSW 22 33 12 18 1025.8 1025.8 0.0
21/10:30am 13.3 8.8 6.2 62 3.4 WSW 19 28 10 15 1026.0 1026.0 0.0
21/10:00am 12.5 7.8 5.9 64 3.1 WSW 20 32 11 17 1026.1 1026.1 0.0
21/09:30am 12.5 7.9 5.7 63 3.2 WSW 19 24 10 13 1026.1 1026.1 0.0
21/09:00am 12.0 7.3 6.1 67 2.8 W 20 26 11 14 1026.1 1026.1 0.0
21/08:30am 11.6 7.4 5.9 68 2.7 W 17 24 9 13 1026.3 1026.3 0.0
21/08:00am 11.4 8.0 5.9 69 2.5 W 13 19 7 10 1026.2 1026.2 0.0
21/07:30am 11.1 8.1 5.8 70 2.5 W 11 15 6 8 1026.2 1026.2 0.0
21/07:00am 11.0 7.5 5.5 69 2.5 W 13 17 7 9 1026.4 1026.4 0.0
21/06:30am 10.8 7.3 5.6 70 2.4 W 13 19 7 10 1026.4 1026.4 0.0
21/06:00am 10.7 6.8 5.5 70 2.4 W 15 19 8 10 1026.3 1026.3 0.0
21/05:30am 11.0 7.5 5.5 69 2.5 W 13 20 7 11 1026.3 1026.3 0.0
21/05:00am 10.9 7.8 5.7 70 2.4 W 11 17 6 9 1026.3 1026.3 0.0
21/04:30am 10.8 7.3 5.6 70 2.4 W 13 17 7 9 1026.6 1026.6 0.0
21/04:00am 10.8 8.1 5.6 70 2.4 W 9 11 5 6 1026.8 1026.8 0.0
21/03:30am 10.7 7.6 5.7 71 2.3 W 11 17 6 9 1027.1 1027.1 0.0
21/03:00am 10.6 6.8 5.8 72 2.2 W 15 17 8 9 1027.3 1027.3 0.0
21/02:30am 10.5 7.1 5.7 72 2.2 W 13 17 7 9 1027.6 1027.6 0.0
21/02:00am 10.6 7.1 5.4 70 2.4 W 13 17 7 9 1027.9 1027.9 0.0
21/01:30am 10.8 7.0 5.6 70 2.4 W 15 19 8 10 1028.2 1028.2 0.0
21/01:00am 11.0 7.8 5.1 67 2.7 W 11 17 6 9 1028.4 1028.4 0.0
21/12:30am 11.6 7.2 4.6 62 3.2 SW 17 22 9 12 1028.7 1028.7 0.0
21/12:00am 10.9 7.4 5.4 69 2.5 W 13 24 7 13 1028.8 1028.8 0.0
 
Date/Time
EDT
Temp
°C
App
Temp
°C
Dew
Point
°C
Rel
Hum
%
Delta-T
°C
Wind Press
QNH
hPa
Press
MSL
hPa
Rain since
9am
mm
Dir  Spd
km/h
Gust
km/h
Spd
kts
Gust
kts
20/11:30pm 10.9 7.5 5.7 70 2.4 W 13 17 7 9 1028.9 1028.9 0.0
20/11:00pm 11.0 7.5 5.5 69 2.5 W 13 17 7 9 1029.1 1029.1 0.0
20/10:30pm 11.9 7.7 5.5 65 3.0 SW 17 24 9 13 1029.3 1029.3 0.0
20/10:00pm 12.0 7.2 5.4 64 3.0 SSW 20 26 11 14 1029.4 1029.4 0.0
20/09:30pm 11.1 5.8 4.8 65 2.9 SSW 22 28 12 15 1029.4 1029.4 0.0
20/09:00pm 10.5 5.5 4.6 67 2.6 SSW 20 30 11 16 1029.5 1029.5 0.0
20/08:30pm 11.0 5.7 4.9 66 2.8 SSW 22 32 12 17 1029.1 1029.1 0.0
20/08:00pm 11.2 5.1 4.7 64 2.9 SSW 26 35 14 19 1029.0 1029.0 0.0
20/07:30pm 11.9 5.0 4.6 61 3.3 S 30 39 16 21 1028.7 1028.7 0.0
20/07:00pm 12.9 6.1 5.1 59 3.6 S 30 37 16 20 1028.3 1028.3 0.0
20/06:30pm 13.3 6.0 4.5 55 4.0 SSW 32 41 17 22 1028.3 1028.3 0.0
20/06:00pm 14.0 7.1 4.6 53 4.3 SSW 30 43 16 23 1028.2 1028.2 0.0
20/05:30pm 13.9 6.3 6.0 59 3.8 SSW 35 44 19 24 1028.0 1028.0 0.0
20/05:00pm 15.0 7.4 5.8 54 4.4 S 35 46 19 25 1027.9 1027.9 0.0
20/04:30pm 16.0 8.4 5.6 50 5.0 SSW 35 44 19 24 1027.8 1027.8 0.0
20/04:00pm 15.6 7.0 4.6 48 5.1 S 39 46 21 25 1027.9 1027.9 0.0
20/03:30pm 16.0 8.5 4.7 47 5.3 S 33 44 18 24 1028.0 1028.0 0.0
20/03:00pm 16.8 8.9 4.5 44 5.8 S 35 44 19 24 1028.1 1028.1 0.0
20/02:30pm 15.7 7.8 4.1 46 5.4 S 35 44 19 24 1028.3 1028.3 0.0
20/02:00pm 16.5 9.1 5.2 47 5.4 S 33 41 18 22 1028.2 1028.2 0.0

Latest Capital City Observations: Canberra | Sydney | Melbourne | Brisbane | Adelaide | Perth | Hobart | Darwin

Other Formats:

Comma delimited format used in spreadsheet applications
http://www.bom.gov.au/fwo/IDV60901/IDV60901.94854.axf

JavaScript Object Notation format (JSON) in row-major order
http://www.bom.gov.au/fwo/IDV60901/IDV60901.94854.json